createdAt,value
2022-08-24T00:02:12.425Z,8.13
2022-08-24T00:04:42.033Z,7.90
2022-08-24T00:07:25.495Z,7.53
2022-08-24T00:09:58.334Z,6.78
2022-08-24T00:12:28.129Z,8.10
2022-08-24T00:14:57.344Z,7.13
2022-08-24T00:17:26.958Z,7.75
2022-08-24T00:19:56.484Z,7.20
2022-08-24T00:22:25.734Z,7.22
2022-08-24T00:24:55.047Z,7.43
2022-08-24T00:27:24.641Z,6.50
2022-08-24T00:29:53.954Z,6.55
2022-08-24T00:32:23.115Z,6.57
2022-08-24T00:34:58.891Z,5.90
2022-08-24T00:37:29.731Z,7.10
2022-08-24T00:40:00.591Z,6.95
2022-08-24T00:42:30.288Z,7.47
2022-08-24T00:45:00.896Z,7.10
2022-08-24T00:47:36.649Z,7.88
2022-08-24T00:50:15.750Z,7.78
2022-08-24T00:52:53.220Z,6.75
2022-08-24T00:55:38.369Z,7.20
2022-08-24T00:58:17.056Z,6.38
2022-08-24T01:00:53.885Z,7.53
2022-08-24T01:03:23.646Z,7.43
2022-08-24T01:05:52.778Z,8.70
2022-08-24T01:08:22.893Z,7.40
2022-08-24T01:11:02.222Z,8.07
2022-08-24T01:13:34.066Z,7.75
2022-08-24T01:16:09.663Z,7.70
2022-08-24T01:18:53.253Z,7.40
2022-08-24T01:21:29.000Z,8.77
2022-08-24T01:24:05.620Z,8.18
2022-08-24T01:26:42.088Z,8.32
2022-08-24T01:29:25.255Z,8.23
2022-08-24T01:31:55.725Z,8.48
2022-08-24T01:34:25.166Z,8.35
2022-08-24T01:36:58.293Z,8.05
2022-08-24T01:39:32.688Z,8.30
2022-08-24T01:42:03.183Z,7.95
2022-08-24T01:44:38.056Z,8.38
2022-08-24T01:47:12.305Z,8.30
2022-08-24T01:52:24.373Z,9.02
2022-08-24T01:54:55.627Z,9.75
2022-08-24T01:57:27.832Z,9.82
2022-08-24T01:59:58.785Z,9.98
2022-08-24T02:02:32.318Z,11.70
2022-08-24T02:05:02.405Z,11.35
2022-08-24T02:07:34.388Z,11.77
2022-08-24T02:10:03.940Z,11.48
2022-08-24T02:12:33.369Z,11.00
2022-08-24T02:15:04.093Z,10.98
2022-08-24T02:17:33.977Z,11.98
2022-08-24T02:20:04.188Z,11.00
2022-08-24T02:22:34.146Z,10.80
2022-08-24T02:25:04.402Z,9.90
2022-08-24T02:27:33.650Z,10.25
2022-08-24T02:30:02.834Z,9.40
2022-08-24T02:32:32.319Z,9.88
2022-08-24T02:35:01.824Z,9.32
2022-08-24T02:37:31.564Z,18.60
2022-08-24T02:40:00.994Z,12.35
2022-08-24T02:42:30.787Z,9.27
2022-08-24T02:45:01.480Z,11.90
2022-08-24T02:47:32.843Z,9.07
2022-08-24T02:50:11.735Z,9.10
2022-08-24T02:52:42.222Z,9.00
2022-08-24T02:55:20.313Z,9.48
2022-08-24T02:57:53.540Z,8.10
2022-08-24T03:00:24.112Z,8.35
2022-08-24T03:02:55.443Z,7.40
2022-08-24T03:05:28.349Z,9.55
2022-08-24T03:07:58.459Z,7.65
2022-08-24T03:10:28.572Z,9.52
2022-08-24T03:13:00.785Z,8.68
2022-08-24T03:15:31.519Z,8.32
2022-08-24T03:18:00.980Z,8.57
2022-08-24T03:20:30.650Z,9.05
2022-08-24T03:23:00.568Z,8.73
2022-08-24T03:25:30.618Z,9.82
2022-08-24T03:27:59.907Z,8.93
2022-08-24T03:30:30.184Z,8.82
2022-08-24T03:33:01.194Z,8.97
2022-08-24T03:35:30.699Z,8.02
2022-08-24T03:38:01.203Z,7.57
2022-08-24T03:40:30.757Z,7.65
2022-08-24T03:43:01.342Z,7.53
2022-08-24T03:45:31.604Z,8.40
2022-08-24T03:48:01.277Z,7.88
2022-08-24T03:50:32.739Z,7.82
2022-08-24T03:53:02.200Z,8.60
2022-08-24T03:55:31.764Z,8.30
2022-08-24T03:58:01.583Z,8.48
2022-08-24T04:00:30.399Z,7.65
2022-08-24T04:03:00.775Z,7.28
2022-08-24T04:05:35.013Z,7.68
2022-08-24T04:08:06.351Z,7.63
2022-08-24T04:10:38.663Z,8.35
2022-08-24T04:13:09.727Z,8.35
2022-08-24T04:15:42.205Z,7.77
2022-08-24T04:18:12.637Z,8.18
2022-08-24T04:20:44.779Z,7.97
2022-08-24T04:23:20.519Z,7.75
2022-08-24T04:25:53.587Z,9.77
2022-08-24T04:28:24.668Z,7.68
2022-08-24T04:30:53.835Z,7.78
2022-08-24T04:33:40.022Z,21.50
2022-08-24T04:36:11.679Z,7.43
2022-08-24T04:38:44.323Z,8.10
2022-08-24T04:41:46.137Z,8.30
2022-08-24T04:44:18.298Z,8.48
2022-08-24T04:46:48.173Z,10.27
2022-08-24T04:49:17.352Z,8.40
2022-08-24T04:51:47.030Z,6.90
2022-08-24T04:54:18.263Z,6.68
2022-08-24T04:56:56.444Z,6.57
2022-08-24T04:59:26.657Z,8.10
2022-08-24T05:01:58.544Z,7.50
2022-08-24T05:04:27.870Z,9.35
2022-08-24T05:06:59.346Z,7.32
2022-08-24T05:09:29.692Z,7.55
2022-08-24T05:12:02.669Z,6.90
2022-08-24T05:14:40.499Z,6.07
2022-08-24T05:17:10.415Z,8.45
2022-08-24T05:19:40.396Z,8.23
2022-08-24T05:22:09.881Z,6.38
2022-08-24T05:24:44.363Z,7.07
2022-08-24T05:27:14.510Z,7.57
2022-08-24T05:29:47.956Z,7.63
2022-08-24T05:34:49.465Z,6.07
2022-08-24T05:37:19.310Z,5.80
2022-08-24T05:40:14.447Z,7.30
2022-08-24T05:42:46.395Z,6.63
2022-08-24T05:45:17.088Z,6.68
2022-08-24T05:47:46.477Z,7.90
2022-08-24T05:50:38.718Z,6.90
2022-08-24T05:53:09.412Z,7.95
2022-08-24T05:55:42.112Z,8.30
2022-08-24T05:58:13.080Z,12.65
2022-08-24T06:00:53.757Z,8.85
2022-08-24T06:03:23.437Z,8.00
2022-08-24T06:05:56.928Z,7.22
2022-08-24T06:08:26.837Z,7.15
2022-08-24T06:10:58.930Z,6.85
2022-08-24T06:13:29.924Z,7.93
2022-08-24T06:16:22.099Z,7.40
2022-08-24T06:18:55.240Z,7.07
2022-08-24T06:21:29.781Z,6.90
2022-08-24T06:24:01.538Z,6.60
2022-08-24T06:26:50.495Z,9.45
2022-08-24T06:29:21.635Z,7.28
2022-08-24T06:31:56.144Z,6.70
2022-08-24T06:34:27.855Z,6.97
2022-08-24T06:36:58.082Z,6.70
2022-08-24T06:39:27.956Z,5.90
2022-08-24T06:41:59.325Z,5.90
2022-08-24T06:44:33.696Z,8.15
2022-08-24T06:47:13.960Z,6.45
2022-08-24T06:49:43.819Z,7.68
2022-08-24T06:52:14.177Z,6.43
2022-08-24T06:54:44.010Z,7.47
2022-08-24T06:57:13.626Z,7.15
2022-08-24T06:59:44.693Z,6.25
2022-08-24T07:02:17.097Z,5.82
2022-08-24T07:07:33.857Z,6.35
2022-08-24T07:10:04.327Z,7.13
2022-08-24T07:12:33.960Z,6.63
2022-08-24T07:15:03.604Z,7.43
2022-08-24T07:17:38.656Z,7.05
2022-08-24T07:20:10.335Z,6.35
2022-08-24T07:23:04.153Z,6.00
2022-08-24T07:25:35.145Z,6.00
2022-08-24T07:28:08.081Z,5.53
2022-08-24T07:30:43.714Z,6.82
2022-08-24T07:33:15.659Z,7.10
2022-08-24T07:35:45.338Z,6.90
2022-08-24T07:38:14.789Z,8.07
2022-08-24T07:41:14.376Z,5.38
2022-08-24T07:43:41.800Z,5.72
2022-08-24T07:46:13.010Z,6.75
2022-08-24T07:48:43.159Z,7.03
2022-08-24T07:51:16.908Z,6.32
2022-08-24T07:53:54.063Z,5.88
2022-08-24T07:56:30.886Z,5.90
2022-08-24T07:59:03.274Z,5.53
2022-08-24T08:01:32.766Z,6.30
2022-08-24T08:04:02.810Z,5.03
2022-08-24T08:06:33.298Z,4.78
2022-08-24T08:09:07.753Z,4.72
2022-08-24T08:11:37.917Z,5.50
2022-08-24T08:14:06.971Z,4.78
2022-08-24T08:16:36.435Z,5.30
2022-08-24T08:19:13.241Z,4.65
2022-08-24T08:22:06.277Z,5.43
2022-08-24T08:24:45.719Z,5.00
2022-08-24T08:27:18.978Z,4.07
2022-08-24T08:29:50.311Z,4.32
2022-08-24T08:32:21.538Z,4.03
2022-08-24T08:34:52.706Z,4.80
2022-08-24T08:37:22.415Z,3.90
2022-08-24T08:39:57.440Z,4.32
2022-08-24T08:42:45.876Z,5.32
2022-08-24T08:46:02.561Z,5.65
2022-08-24T08:49:25.335Z,5.40
2022-08-24T08:51:57.666Z,5.57
2022-08-24T08:54:46.062Z,5.63
2022-08-24T08:57:49.005Z,5.00
2022-08-24T09:00:24.352Z,5.03
2022-08-24T09:03:34.891Z,4.80
2022-08-24T09:07:01.961Z,5.25
2022-08-24T09:09:55.182Z,4.20
2022-08-24T09:12:41.569Z,3.75
2022-08-24T09:15:19.999Z,4.68
2022-08-24T09:18:16.794Z,5.40
2022-08-24T09:21:17.170Z,5.53
2022-08-24T09:24:24.816Z,5.40
2022-08-24T09:27:16.651Z,5.63
2022-08-24T09:30:07.852Z,5.47
2022-08-24T09:32:51.901Z,6.10
2022-08-24T09:35:32.910Z,6.00
2022-08-24T09:38:32.960Z,6.15
2022-08-24T09:41:14.027Z,6.40
2022-08-24T09:44:20.479Z,7.15
2022-08-24T09:47:04.364Z,7.60
2022-08-24T09:49:57.817Z,7.47
2022-08-24T09:52:51.542Z,6.95
2022-08-24T09:55:45.285Z,7.50
2022-08-24T09:58:27.713Z,8.82
2022-08-24T10:01:10.142Z,7.63
2022-08-24T10:04:09.428Z,7.68
2022-08-24T10:06:53.245Z,9.88
2022-08-24T10:09:40.654Z,8.20
2022-08-24T10:12:25.328Z,8.10
2022-08-24T10:15:00.940Z,8.60
2022-08-24T10:17:48.341Z,7.68
2022-08-24T10:20:27.326Z,8.40
2022-08-24T10:23:09.372Z,7.70
2022-08-24T10:25:42.030Z,8.25
2022-08-24T10:28:32.334Z,6.85
2022-08-24T10:31:19.934Z,7.05
2022-08-24T10:34:17.933Z,6.50
2022-08-24T10:37:16.822Z,7.10
2022-08-24T10:40:11.937Z,6.32
2022-08-24T10:43:26.144Z,6.97
2022-08-24T10:46:46.921Z,5.85
2022-08-24T10:49:36.899Z,7.40
2022-08-24T10:52:20.809Z,6.32
2022-08-24T10:54:50.182Z,7.32
2022-08-24T10:58:11.098Z,7.32
2022-08-24T11:00:40.902Z,6.88
2022-08-24T11:03:28.332Z,6.45
2022-08-24T11:05:58.804Z,7.50
2022-08-24T11:08:31.310Z,7.10
2022-08-24T11:11:16.007Z,6.43
2022-08-24T11:14:01.559Z,6.20
2022-08-24T11:16:36.895Z,6.25
2022-08-24T11:19:30.413Z,6.80
2022-08-24T11:22:06.241Z,6.20
2022-08-24T11:24:47.873Z,6.28
2022-08-24T11:27:31.736Z,6.40
2022-08-24T11:30:08.804Z,6.47
2022-08-24T11:32:40.708Z,8.32
2022-08-24T11:35:37.674Z,9.18
2022-08-24T11:38:16.884Z,11.05
2022-08-24T11:40:55.318Z,13.45
2022-08-24T11:44:03.065Z,18.45
2022-08-24T11:46:59.305Z,13.45
2022-08-24T11:49:53.057Z,12.90
2022-08-24T11:52:54.766Z,11.23
2022-08-24T11:58:49.312Z,10.75
2022-08-24T12:01:33.891Z,7.68
2022-08-24T12:04:12.398Z,9.00
2022-08-24T12:07:23.230Z,12.88
2022-08-24T12:10:11.556Z,9.38
2022-08-24T12:12:53.886Z,8.05
2022-08-24T12:15:32.254Z,7.80
2022-08-24T12:18:43.029Z,5.78
2022-08-24T12:21:21.165Z,7.22
2022-08-24T12:24:32.626Z,5.35
2022-08-24T12:27:30.818Z,6.47
2022-08-24T12:30:06.837Z,5.80
2022-08-24T12:32:50.525Z,6.15
2022-08-24T12:35:43.981Z,6.75
2022-08-24T12:38:28.302Z,5.75
2022-08-24T12:40:59.466Z,6.88
2022-08-24T12:43:48.251Z,6.18
2022-08-24T12:46:22.115Z,5.15
2022-08-24T12:49:10.118Z,6.40
2022-08-24T12:52:04.159Z,6.07
2022-08-24T12:54:59.205Z,5.18
2022-08-24T12:57:56.886Z,5.28
2022-08-24T13:00:38.391Z,5.43
2022-08-24T13:03:24.462Z,5.80
2022-08-24T13:05:59.784Z,6.10
2022-08-24T13:08:49.186Z,6.13
2022-08-24T13:11:35.934Z,7.25
2022-08-24T13:14:20.808Z,8.60
2022-08-24T13:17:10.969Z,9.52
2022-08-24T13:19:44.808Z,8.07
2022-08-24T13:22:14.317Z,8.75
2022-08-24T13:24:54.209Z,8.38
2022-08-24T13:27:23.702Z,8.23
2022-08-24T13:30:06.575Z,8.95
2022-08-24T13:32:57.387Z,8.73
2022-08-24T13:35:41.158Z,8.65
2022-08-24T13:38:42.216Z,9.27
2022-08-24T13:41:41.386Z,8.80
2022-08-24T13:44:34.118Z,9.38
2022-08-24T13:47:12.098Z,9.88
2022-08-24T13:50:13.367Z,6.90
2022-08-24T13:53:25.299Z,6.80
2022-08-24T13:56:10.775Z,5.55
2022-08-24T13:58:55.002Z,6.00
2022-08-24T14:02:11.653Z,5.68
2022-08-24T14:04:51.017Z,5.68
2022-08-24T14:07:49.099Z,5.57
2022-08-24T14:10:35.831Z,4.72
2022-08-24T14:13:24.582Z,4.03
2022-08-24T14:16:23.110Z,4.40
2022-08-24T14:18:52.237Z,5.07
2022-08-24T14:21:25.799Z,4.72
2022-08-24T14:24:04.324Z,4.80
2022-08-24T14:26:37.793Z,4.57
2022-08-24T14:29:19.971Z,4.07
2022-08-24T14:37:28.715Z,3.25
2022-08-24T14:39:59.679Z,4.13
2022-08-24T14:42:44.450Z,3.97
2022-08-24T14:45:52.161Z,4.55
2022-08-24T14:48:34.679Z,4.68
2022-08-24T14:54:04.465Z,5.20
2022-08-24T14:56:49.165Z,4.53
2022-08-24T14:59:47.282Z,4.22
2022-08-24T15:02:58.089Z,5.13
2022-08-24T15:05:33.294Z,5.07
2022-08-24T15:08:28.746Z,5.70
2022-08-24T15:11:08.674Z,5.35
2022-08-24T15:14:02.727Z,5.40
2022-08-24T15:16:53.249Z,5.32
2022-08-24T15:19:48.980Z,5.63
2022-08-24T15:22:52.841Z,6.30
2022-08-24T15:25:43.673Z,7.40
2022-08-24T15:28:16.495Z,7.65
2022-08-24T15:31:00.474Z,8.85
2022-08-24T15:33:31.736Z,7.35
2022-08-24T15:36:15.784Z,9.32
2022-08-24T15:38:46.007Z,10.98
2022-08-24T15:41:33.419Z,9.88
2022-08-24T15:44:34.564Z,10.15
2022-08-24T15:47:11.989Z,10.57
2022-08-24T15:50:18.890Z,11.13
2022-08-24T15:53:04.269Z,11.40
2022-08-24T15:55:48.456Z,11.68
2022-08-24T15:58:40.935Z,11.10
2022-08-24T16:01:31.280Z,10.98
2022-08-24T16:04:11.222Z,10.13
2022-08-24T16:06:48.928Z,8.77
2022-08-24T16:09:23.735Z,8.60
2022-08-24T16:11:58.973Z,9.10
2022-08-24T16:14:30.213Z,10.05
2022-08-24T16:17:02.848Z,9.25
2022-08-24T16:19:36.529Z,8.80
2022-08-24T16:22:11.795Z,9.07
2022-08-24T16:24:44.081Z,8.93
2022-08-24T16:29:46.063Z,8.40
2022-08-24T16:35:10.411Z,10.77
2022-08-24T16:37:40.921Z,9.85
2022-08-24T16:40:11.150Z,10.75
2022-08-24T16:42:42.901Z,10.15
2022-08-24T16:45:16.488Z,10.50
2022-08-24T16:47:47.895Z,8.75
2022-08-24T16:50:20.776Z,8.87
2022-08-24T16:52:51.296Z,8.38
2022-08-24T16:55:21.278Z,9.15
2022-08-24T16:57:51.773Z,8.18
2022-08-24T17:00:23.258Z,8.23
2022-08-24T17:02:53.094Z,8.68
2022-08-24T17:05:23.548Z,8.65
2022-08-24T17:07:53.181Z,7.90
2022-08-24T17:10:24.968Z,8.48
2022-08-24T17:12:54.646Z,8.70
2022-08-24T17:15:23.826Z,8.23
2022-08-24T17:18:06.572Z,9.27
2022-08-24T17:20:36.231Z,8.43
2022-08-24T17:23:05.850Z,7.63
2022-08-24T17:25:35.479Z,8.80
2022-08-24T17:28:05.543Z,8.50
2022-08-24T17:30:36.070Z,9.90
2022-08-24T17:33:06.479Z,8.20
2022-08-24T17:35:36.558Z,8.38
2022-08-24T17:38:06.265Z,8.75
2022-08-24T17:40:36.409Z,10.55
2022-08-24T17:43:06.841Z,9.20
2022-08-24T17:45:37.862Z,9.90
2022-08-24T17:48:07.425Z,8.98
2022-08-24T17:50:37.109Z,10.20
2022-08-24T17:53:06.443Z,10.80
2022-08-24T17:55:36.499Z,10.02
2022-08-24T17:58:06.034Z,10.50
2022-08-24T18:00:35.182Z,10.68
2022-08-24T18:03:04.680Z,9.98
2022-08-24T18:05:35.856Z,10.98
2022-08-24T18:08:05.615Z,11.25
2022-08-24T18:10:34.960Z,11.57
2022-08-24T18:13:05.171Z,13.88
2022-08-24T18:15:36.715Z,16.13
2022-08-24T18:18:09.478Z,12.27
2022-08-24T18:20:42.399Z,12.52
2022-08-24T18:23:12.595Z,12.38
2022-08-24T18:25:49.024Z,13.32
2022-08-24T18:28:24.048Z,13.82
2022-08-24T18:30:53.647Z,12.85
2022-08-24T18:33:22.735Z,14.13
2022-08-24T18:35:52.036Z,14.40
2022-08-24T18:38:21.048Z,14.60
2022-08-24T18:40:52.345Z,15.13
2022-08-24T18:43:25.263Z,15.00
2022-08-24T18:45:55.140Z,14.23
2022-08-24T18:48:24.942Z,15.60
2022-08-24T18:50:54.519Z,15.77
2022-08-24T18:53:27.249Z,15.45
2022-08-24T18:55:56.923Z,16.27
2022-08-24T18:58:26.127Z,16.17
2022-08-24T19:00:58.169Z,16.10
2022-08-24T19:03:28.976Z,18.02
2022-08-24T19:05:58.428Z,16.77
2022-08-24T19:08:27.606Z,18.92
2022-08-24T19:10:57.554Z,19.55
2022-08-24T19:13:27.563Z,16.02
2022-08-24T19:15:57.086Z,15.60
2022-08-24T19:18:26.788Z,16.95
2022-08-24T19:20:59.139Z,16.52
2022-08-24T19:23:35.717Z,16.15
2022-08-24T19:26:06.234Z,15.70
2022-08-24T19:28:36.294Z,16.00
2022-08-24T19:31:12.250Z,16.30
2022-08-24T19:33:49.821Z,15.60
2022-08-24T19:36:20.257Z,16.45
2022-08-24T19:38:49.820Z,17.98
2022-08-24T19:41:20.639Z,16.70
2022-08-24T19:46:53.146Z,16.38
2022-08-24T19:49:22.563Z,16.77
2022-08-24T19:51:52.506Z,16.90
2022-08-24T19:54:21.903Z,16.42
2022-08-24T19:56:55.459Z,15.57
2022-08-24T19:59:33.063Z,16.58
2022-08-24T20:02:03.858Z,17.35
2022-08-24T20:04:33.014Z,17.40
2022-08-24T20:07:02.273Z,16.85
2022-08-24T20:09:33.995Z,17.75
2022-08-24T20:12:03.389Z,16.40
2022-08-24T20:14:37.200Z,18.60
2022-08-24T20:17:07.690Z,18.15
2022-08-24T20:19:40.318Z,17.75
2022-08-24T20:22:13.590Z,18.70
2022-08-24T20:24:43.611Z,16.33
2022-08-24T20:27:24.736Z,19.10
2022-08-24T20:29:55.217Z,17.42
2022-08-24T20:32:24.713Z,19.00
2022-08-24T20:34:53.735Z,19.20
2022-08-24T20:37:27.460Z,17.73
2022-08-24T20:39:58.089Z,19.17
2022-08-24T20:42:29.675Z,19.52
2022-08-24T20:45:01.293Z,19.08
2022-08-24T20:47:30.427Z,19.83
2022-08-24T20:49:59.390Z,19.38
2022-08-24T20:52:29.158Z,20.48
2022-08-24T20:54:58.158Z,20.90
2022-08-24T20:57:27.458Z,19.90
2022-08-24T20:59:56.751Z,21.25
2022-08-24T21:02:26.138Z,20.40
2022-08-24T21:04:55.070Z,19.80
2022-08-24T21:07:24.389Z,20.45
2022-08-24T21:09:53.802Z,20.30
2022-08-24T21:12:23.115Z,21.20
2022-08-24T21:14:55.435Z,21.50
2022-08-24T21:17:26.607Z,20.70
2022-08-24T21:19:55.715Z,22.20
2022-08-24T21:22:24.845Z,21.60
2022-08-24T21:24:54.172Z,19.63
2022-08-24T21:27:24.517Z,20.67
2022-08-24T21:29:53.617Z,22.02
2022-08-24T21:32:41.814Z,20.98
2022-08-24T21:35:11.568Z,20.08
2022-08-24T21:37:44.673Z,20.25
2022-08-24T21:40:14.102Z,22.42
2022-08-24T21:42:43.525Z,20.73
2022-08-24T21:45:13.704Z,20.88
2022-08-24T21:47:43.087Z,23.08
2022-08-24T21:50:13.508Z,22.08
2022-08-24T21:52:42.773Z,21.73
2022-08-24T21:55:15.126Z,22.23
2022-08-24T21:57:44.706Z,21.27
2022-08-24T22:00:17.367Z,20.95
2022-08-24T22:02:46.915Z,20.70
2022-08-24T22:05:18.029Z,47.83
2022-08-24T22:07:47.355Z,23.95
2022-08-24T22:10:16.774Z,20.42
2022-08-24T22:12:46.566Z,19.40
2022-08-24T22:15:17.205Z,20.75
2022-08-24T22:17:53.665Z,20.00
2022-08-24T22:20:23.311Z,19.08
2022-08-24T22:22:52.842Z,19.25
2022-08-24T22:25:22.368Z,20.83
2022-08-24T22:27:51.659Z,19.15
2022-08-24T22:30:21.074Z,18.77
2022-08-24T22:32:50.827Z,18.30
2022-08-24T22:35:20.403Z,18.10
2022-08-24T22:37:49.599Z,19.15
2022-08-24T22:40:19.867Z,18.17
2022-08-24T22:42:51.379Z,18.40
2022-08-24T22:45:22.054Z,20.23
2022-08-24T22:47:51.381Z,18.30
2022-08-24T22:50:20.567Z,18.05
2022-08-24T22:52:49.872Z,17.00
2022-08-24T22:55:19.241Z,18.15
2022-08-24T22:57:51.335Z,18.40
2022-08-24T23:00:21.556Z,18.20
2022-08-24T23:02:51.337Z,18.42
2022-08-24T23:05:20.583Z,17.90
2022-08-24T23:07:49.704Z,19.83
2022-08-24T23:10:18.874Z,18.80
2022-08-24T23:12:48.244Z,17.70
2022-08-24T23:15:17.382Z,19.77
2022-08-24T23:17:46.688Z,18.77
2022-08-24T23:20:16.063Z,18.67
2022-08-24T23:22:45.053Z,17.70
2022-08-24T23:25:15.173Z,19.25
2022-08-24T23:27:46.548Z,19.20
2022-08-24T23:30:19.237Z,18.42
2022-08-24T23:33:06.676Z,17.80
2022-08-24T23:35:37.374Z,17.40
2022-08-24T23:38:06.433Z,18.15
2022-08-24T23:40:35.408Z,16.63
2022-08-24T23:43:04.797Z,15.52
2022-08-24T23:45:33.651Z,16.08
2022-08-24T23:48:03.302Z,15.48
2022-08-24T23:50:33.639Z,15.88
2022-08-24T23:53:02.744Z,16.90
2022-08-24T23:55:31.668Z,18.00
2022-08-24T23:58:01.026Z,17.73
